sensor_id;sensor_type;location;lat;lon;timestamp;pressure;altitude;pressure_sealevel;temperature;humidity
75039;BME280;63609;49.992;14.512;2024-03-17T00:02:21;98696.22;;;3.69;57.22
75039;BME280;63609;49.992;14.512;2024-03-17T00:04:47;98705.34;;;3.49;57.48
75039;BME280;63609;49.992;14.512;2024-03-17T00:07:13;98710.41;;;3.38;58.18
75039;BME280;63609;49.992;14.512;2024-03-17T00:09:40;98707.41;;;3.44;57.69
75039;BME280;63609;49.992;14.512;2024-03-17T00:12:06;98709.03;;;3.60;57.29
75039;BME280;63609;49.992;14.512;2024-03-17T00:14:33;98706.38;;;3.60;56.93
75039;BME280;63609;49.992;14.512;2024-03-17T00:17:01;98703.63;;;3.92;55.44
75039;BME280;63609;49.992;14.512;2024-03-17T00:19:26;98702.97;;;4.03;54.09
75039;BME280;63609;49.992;14.512;2024-03-17T00:21:52;98713.38;;;3.61;54.33
75039;BME280;63609;49.992;14.512;2024-03-17T00:24:19;98706.66;;;3.42;54.95
75039;BME280;63609;49.992;14.512;2024-03-17T00:26:47;98710.00;;;3.29;54.95
75039;BME280;63609;49.992;14.512;2024-03-17T00:29:13;98717.91;;;3.29;55.21
75039;BME280;63609;49.992;14.512;2024-03-17T00:31:40;98715.97;;;3.33;56.44
75039;BME280;63609;49.992;14.512;2024-03-17T00:34:06;98717.78;;;3.17;56.64
75039;BME280;63609;49.992;14.512;2024-03-17T00:36:33;98716.91;;;3.02;58.43
75039;BME280;63609;49.992;14.512;2024-03-17T00:38:58;98720.41;;;2.40;61.05
75039;BME280;63609;49.992;14.512;2024-03-17T00:41:26;98723.03;;;2.24;62.26
75039;BME280;63609;49.992;14.512;2024-03-17T00:43:52;98715.31;;;2.36;61.99
75039;BME280;63609;49.992;14.512;2024-03-17T00:46:21;98706.69;;;2.17;62.26
75039;BME280;63609;49.992;14.512;2024-03-17T00:48:48;98705.53;;;2.39;61.98
75039;BME280;63609;49.992;14.512;2024-03-17T00:51:15;98712.09;;;2.47;61.22
75039;BME280;63609;49.992;14.512;2024-03-17T00:53:42;98706.81;;;2.47;60.96
75039;BME280;63609;49.992;14.512;2024-03-17T00:56:08;98710.91;;;2.68;61.00
75039;BME280;63609;49.992;14.512;2024-03-17T00:58:34;98711.50;;;2.42;60.96
75039;BME280;63609;49.992;14.512;2024-03-17T01:03:29;98714.22;;;2.41;62.07
75039;BME280;63609;49.992;14.512;2024-03-17T01:05:55;98715.72;;;2.60;59.71
75039;BME280;63609;49.992;14.512;2024-03-17T01:08:21;98712.34;;;2.74;60.29
75039;BME280;63609;49.992;14.512;2024-03-17T01:10:48;98714.88;;;2.76;59.77
75039;BME280;63609;49.992;14.512;2024-03-17T01:13:17;98701.38;;;2.66;60.30
75039;BME280;63609;49.992;14.512;2024-03-17T01:15:43;98710.38;;;2.78;59.42
75039;BME280;63609;49.992;14.512;2024-03-17T01:18:09;98704.75;;;2.21;60.37
75039;BME280;63609;49.992;14.512;2024-03-17T01:20:36;98706.94;;;2.13;61.09
75039;BME280;63609;49.992;14.512;2024-03-17T01:23:04;98707.31;;;2.38;60.70
75039;BME280;63609;49.992;14.512;2024-03-17T01:25:33;98711.81;;;2.20;61.09
75039;BME280;63609;49.992;14.512;2024-03-17T01:28:01;98710.53;;;2.12;61.37
75039;BME280;63609;49.992;14.512;2024-03-17T01:30:27;98719.66;;;2.38;60.47
75039;BME280;63609;49.992;14.512;2024-03-17T01:32:53;98708.09;;;2.40;60.14
75039;BME280;63609;49.992;14.512;2024-03-17T01:35:19;98709.88;;;2.55;59.07
75039;BME280;63609;49.992;14.512;2024-03-17T01:37:46;98715.22;;;2.54;59.22
75039;BME280;63609;49.992;14.512;2024-03-17T01:40:11;98714.13;;;2.74;59.02
75039;BME280;63609;49.992;14.512;2024-03-17T01:42:38;98721.25;;;2.56;59.41
75039;BME280;63609;49.992;14.512;2024-03-17T01:45:28;98710.47;;;2.45;60.29
75039;BME280;63609;49.992;14.512;2024-03-17T01:47:56;98708.34;;;2.51;59.65
75039;BME280;63609;49.992;14.512;2024-03-17T01:50:36;98712.13;;;2.14;61.30
75039;BME280;63609;49.992;14.512;2024-03-17T01:53:05;98700.66;;;2.31;60.58
75039;BME280;63609;49.992;14.512;2024-03-17T01:55:38;98699.06;;;2.60;59.59
75039;BME280;63609;49.992;14.512;2024-03-17T01:58:05;98699.69;;;2.33;59.94
75039;BME280;63609;49.992;14.512;2024-03-17T02:00:36;98705.25;;;2.27;60.06
75039;BME280;63609;49.992;14.512;2024-03-17T02:03:07;98702.91;;;2.39;60.53
75039;BME280;63609;49.992;14.512;2024-03-17T02:05:36;98713.69;;;2.50;59.67
75039;BME280;63609;49.992;14.512;2024-03-17T02:08:06;98708.75;;;2.44;60.40
75039;BME280;63609;49.992;14.512;2024-03-17T02:10:33;98708.56;;;2.31;60.40
75039;BME280;63609;49.992;14.512;2024-03-17T02:13:00;98701.94;;;2.55;59.72
75039;BME280;63609;49.992;14.512;2024-03-17T02:15:27;98702.69;;;2.10;60.99
75039;BME280;63609;49.992;14.512;2024-03-17T02:17:53;98700.25;;;2.23;60.38
75039;BME280;63609;49.992;14.512;2024-03-17T02:20:19;98704.69;;;2.54;59.79
75039;BME280;63609;49.992;14.512;2024-03-17T02:22:45;98701.47;;;1.84;61.40
75039;BME280;63609;49.992;14.512;2024-03-17T02:25:11;98705.78;;;1.85;62.19
75039;BME280;63609;49.992;14.512;2024-03-17T02:27:37;98709.63;;;1.95;61.87
75039;BME280;63609;49.992;14.512;2024-03-17T02:30:04;98706.81;;;1.83;62.43
75039;BME280;63609;49.992;14.512;2024-03-17T02:32:38;98709.28;;;1.86;62.49
75039;BME280;63609;49.992;14.512;2024-03-17T02:35:04;98711.97;;;1.68;63.26
75039;BME280;63609;49.992;14.512;2024-03-17T02:37:30;98712.41;;;1.59;63.50
75039;BME280;63609;49.992;14.512;2024-03-17T02:39:56;98710.97;;;1.87;63.35
75039;BME280;63609;49.992;14.512;2024-03-17T02:42:22;98711.34;;;1.46;64.53
75039;BME280;63609;49.992;14.512;2024-03-17T02:44:48;98717.75;;;1.75;64.05
75039;BME280;63609;49.992;14.512;2024-03-17T02:47:14;98706.81;;;1.83;64.21
75039;BME280;63609;49.992;14.512;2024-03-17T02:49:40;98710.25;;;2.00;63.31
75039;BME280;63609;49.992;14.512;2024-03-17T02:52:10;98696.22;;;1.67;63.80
75039;BME280;63609;49.992;14.512;2024-03-17T02:54:38;98705.13;;;1.97;62.73
75039;BME280;63609;49.992;14.512;2024-03-17T02:57:06;98706.13;;;1.95;63.10
75039;BME280;63609;49.992;14.512;2024-03-17T02:59:34;98699.91;;;2.29;61.63
75039;BME280;63609;49.992;14.512;2024-03-17T03:02:02;98697.34;;;2.27;60.77
75039;BME280;63609;49.992;14.512;2024-03-17T03:04:28;98700.19;;;2.40;60.55
75039;BME280;63609;49.992;14.512;2024-03-17T03:06:54;98695.91;;;2.22;61.46
75039;BME280;63609;49.992;14.512;2024-03-17T03:09:20;98692.94;;;2.12;61.32
75039;BME280;63609;49.992;14.512;2024-03-17T03:11:47;98699.91;;;2.29;60.86
75039;BME280;63609;49.992;14.512;2024-03-17T03:14:14;98699.47;;;2.05;61.83
75039;BME280;63609;49.992;14.512;2024-03-17T03:16:39;98692.78;;;1.82;62.82
75039;BME280;63609;49.992;14.512;2024-03-17T03:19:05;98696.34;;;2.14;61.17
75039;BME280;63609;49.992;14.512;2024-03-17T03:21:31;98695.66;;;1.78;62.26
75039;BME280;63609;49.992;14.512;2024-03-17T03:23:57;98694.72;;;2.12;61.49
75039;BME280;63609;49.992;14.512;2024-03-17T03:26:23;98697.09;;;2.00;60.74
75039;BME280;63609;49.992;14.512;2024-03-17T03:28:50;98695.22;;;1.69;62.15
75039;BME280;63609;49.992;14.512;2024-03-17T03:31:16;98705.38;;;1.93;62.11
75039;BME280;63609;49.992;14.512;2024-03-17T03:33:43;98694.38;;;1.69;63.25
75039;BME280;63609;49.992;14.512;2024-03-17T03:38:35;98699.94;;;1.96;61.94
75039;BME280;63609;49.992;14.512;2024-03-17T03:43:33;98703.38;;;1.48;64.03
75039;BME280;63609;49.992;14.512;2024-03-17T03:46:00;98702.13;;;1.88;63.06
75039;BME280;63609;49.992;14.512;2024-03-17T03:48:27;98700.59;;;2.32;60.29
75039;BME280;63609;49.992;14.512;2024-03-17T03:50:53;98697.09;;;2.16;60.58
75039;BME280;63609;49.992;14.512;2024-03-17T03:53:20;98707.75;;;2.46;58.89
75039;BME280;63609;49.992;14.512;2024-03-17T03:55:46;98703.31;;;2.62;57.93
75039;BME280;63609;49.992;14.512;2024-03-17T03:58:12;98696.78;;;2.54;57.65
75039;BME280;63609;49.992;14.512;2024-03-17T04:00:39;98697.91;;;2.34;58.59
75039;BME280;63609;49.992;14.512;2024-03-17T04:03:05;98700.00;;;2.27;58.23
75039;BME280;63609;49.992;14.512;2024-03-17T04:05:31;98693.38;;;2.20;58.47
75039;BME280;63609;49.992;14.512;2024-03-17T04:07:57;98691.06;;;2.14;58.73
75039;BME280;63609;49.992;14.512;2024-03-17T04:10:24;98697.59;;;1.41;61.54
75039;BME280;63609;49.992;14.512;2024-03-17T04:12:51;98700.72;;;1.13;64.09
75039;BME280;63609;49.992;14.512;2024-03-17T04:15:17;98696.09;;;1.35;64.13
75039;BME280;63609;49.992;14.512;2024-03-17T04:17:43;98699.00;;;1.64;62.55
75039;BME280;63609;49.992;14.512;2024-03-17T04:20:09;98696.38;;;1.29;63.62
75039;BME280;63609;49.992;14.512;2024-03-17T04:22:40;98703.66;;;1.59;62.89
75039;BME280;63609;49.992;14.512;2024-03-17T04:25:06;98705.84;;;1.51;63.70
75039;BME280;63609;49.992;14.512;2024-03-17T04:27:32;98703.03;;;1.02;65.06
75039;BME280;63609;49.992;14.512;2024-03-17T04:29:59;98710.13;;;0.82;65.98
75039;BME280;63609;49.992;14.512;2024-03-17T04:32:26;98706.50;;;0.85;66.65
75039;BME280;63609;49.992;14.512;2024-03-17T04:34:56;98704.94;;;0.81;66.21
75039;BME280;63609;49.992;14.512;2024-03-17T04:37:22;98704.19;;;0.96;65.76
75039;BME280;63609;49.992;14.512;2024-03-17T04:39:48;98703.66;;;1.07;65.41
75039;BME280;63609;49.992;14.512;2024-03-17T04:42:15;98705.34;;;1.25;64.80
75039;BME280;63609;49.992;14.512;2024-03-17T04:44:45;98707.25;;;1.91;61.16
75039;BME280;63609;49.992;14.512;2024-03-17T04:47:12;98703.25;;;1.84;61.07
75039;BME280;63609;49.992;14.512;2024-03-17T04:49:40;98706.72;;;1.84;60.06
75039;BME280;63609;49.992;14.512;2024-03-17T04:52:07;98707.16;;;1.92;59.35
75039;BME280;63609;49.992;14.512;2024-03-17T04:54:34;98713.66;;;1.52;59.06
75039;BME280;63609;49.992;14.512;2024-03-17T04:57:00;98711.16;;;1.66;58.80
75039;BME280;63609;49.992;14.512;2024-03-17T04:59:27;98713.56;;;1.36;59.04
75039;BME280;63609;49.992;14.512;2024-03-17T05:01:53;98710.75;;;1.41;58.51
75039;BME280;63609;49.992;14.512;2024-03-17T05:04:19;98715.34;;;1.36;58.79
75039;BME280;63609;49.992;14.512;2024-03-17T05:06:46;98716.81;;;1.24;58.80
75039;BME280;63609;49.992;14.512;2024-03-17T05:09:12;98719.28;;;1.27;58.82
75039;BME280;63609;49.992;14.512;2024-03-17T05:11:40;98720.91;;;1.12;59.29
75039;BME280;63609;49.992;14.512;2024-03-17T05:14:06;98726.47;;;1.06;60.47
75039;BME280;63609;49.992;14.512;2024-03-17T05:16:33;98728.34;;;1.04;59.26
75039;BME280;63609;49.992;14.512;2024-03-17T05:18:59;98735.38;;;1.04;60.52
75039;BME280;63609;49.992;14.512;2024-03-17T05:21:25;98734.38;;;1.24;59.82
75039;BME280;63609;49.992;14.512;2024-03-17T05:24:03;98731.25;;;0.98;60.64
75039;BME280;63609;49.992;14.512;2024-03-17T05:26:29;98731.47;;;0.94;60.73
75039;BME280;63609;49.992;14.512;2024-03-17T05:28:57;98734.31;;;0.72;61.69
75039;BME280;63609;49.992;14.512;2024-03-17T05:31:22;98726.53;;;0.69;61.59
75039;BME280;63609;49.992;14.512;2024-03-17T05:33:48;98738.41;;;0.77;61.49
75039;BME280;63609;49.992;14.512;2024-03-17T05:36:14;98738.94;;;1.03;60.83
75039;BME280;63609;49.992;14.512;2024-03-17T05:38:40;98749.75;;;1.14;60.85
75039;BME280;63609;49.992;14.512;2024-03-17T05:41:08;98745.13;;;1.19;60.47
75039;BME280;63609;49.992;14.512;2024-03-17T05:43:37;98749.56;;;1.00;60.84
75039;BME280;63609;49.992;14.512;2024-03-17T05:46:08;98747.78;;;0.83;61.44
75039;BME280;63609;49.992;14.512;2024-03-17T05:48:35;98759.69;;;0.90;62.89
75039;BME280;63609;49.992;14.512;2024-03-17T05:51:08;98760.84;;;0.85;63.09
75039;BME280;63609;49.992;14.512;2024-03-17T05:53:37;98764.53;;;1.17;62.03
75039;BME280;63609;49.992;14.512;2024-03-17T05:56:06;98766.34;;;0.97;62.70
75039;BME280;63609;49.992;14.512;2024-03-17T05:58:33;98765.53;;;1.31;62.30
75039;BME280;63609;49.992;14.512;2024-03-17T06:01:04;98765.38;;;1.17;63.28
75039;BME280;63609;49.992;14.512;2024-03-17T06:03:30;98759.81;;;1.06;63.98
75039;BME280;63609;49.992;14.512;2024-03-17T06:05:58;98766.50;;;0.94;65.06
75039;BME280;63609;49.992;14.512;2024-03-17T06:08:25;98766.31;;;0.80;65.55
75039;BME280;63609;49.992;14.512;2024-03-17T06:10:51;98771.03;;;1.09;65.28
75039;BME280;63609;49.992;14.512;2024-03-17T06:13:17;98767.91;;;1.55;63.79
75039;BME280;63609;49.992;14.512;2024-03-17T06:15:44;98768.44;;;1.61;63.47
75039;BME280;63609;49.992;14.512;2024-03-17T06:18:12;98781.47;;;1.47;64.66
75039;BME280;63609;49.992;14.512;2024-03-17T06:20:44;98773.75;;;1.94;63.35
75039;BME280;63609;49.992;14.512;2024-03-17T06:23:14;98772.78;;;1.80;63.86
75039;BME280;63609;49.992;14.512;2024-03-17T06:25:42;98773.38;;;2.02;63.63
75039;BME280;63609;49.992;14.512;2024-03-17T06:28:11;98777.66;;;2.69;62.23
75039;BME280;63609;49.992;14.512;2024-03-17T06:30:41;98791.94;;;2.81;61.77
75039;BME280;63609;49.992;14.512;2024-03-17T06:33:11;98787.94;;;3.05;60.74
75039;BME280;63609;49.992;14.512;2024-03-17T06:35:37;98789.72;;;3.05;61.11
75039;BME280;63609;49.992;14.512;2024-03-17T06:38:04;98792.19;;;2.92;61.25
75039;BME280;63609;49.992;14.512;2024-03-17T06:40:30;98793.91;;;2.77;61.43
75039;BME280;63609;49.992;14.512;2024-03-17T06:42:57;98792.19;;;2.92;61.85
75039;BME280;63609;49.992;14.512;2024-03-17T06:45:23;98799.41;;;2.88;61.44
75039;BME280;63609;49.992;14.512;2024-03-17T06:47:49;98802.44;;;2.65;61.97
75039;BME280;63609;49.992;14.512;2024-03-17T06:50:15;98802.41;;;2.82;62.40
75039;BME280;63609;49.992;14.512;2024-03-17T06:52:41;98799.59;;;2.70;61.44
75039;BME280;63609;49.992;14.512;2024-03-17T06:55:07;98799.91;;;2.63;62.35
75039;BME280;63609;49.992;14.512;2024-03-17T06:57:34;98802.16;;;2.71;60.00
75039;BME280;63609;49.992;14.512;2024-03-17T07:00:01;98799.16;;;2.28;61.33
75039;BME280;63609;49.992;14.512;2024-03-17T07:02:27;98808.31;;;2.54;60.85
75039;BME280;63609;49.992;14.512;2024-03-17T07:04:52;98805.00;;;2.51;61.23
75039;BME280;63609;49.992;14.512;2024-03-17T07:07:18;98814.09;;;2.61;61.89
75039;BME280;63609;49.992;14.512;2024-03-17T07:09:47;98811.56;;;2.91;60.57
75039;BME280;63609;49.992;14.512;2024-03-17T07:12:13;98819.56;;;2.89;60.55
75039;BME280;63609;49.992;14.512;2024-03-17T07:14:39;98816.50;;;2.97;60.02
75039;BME280;63609;49.992;14.512;2024-03-17T07:17:06;98814.38;;;3.19;59.85
75039;BME280;63609;49.992;14.512;2024-03-17T07:19:32;98822.19;;;3.37;58.60
75039;BME280;63609;49.992;14.512;2024-03-17T07:22:00;98822.78;;;3.26;59.55
75039;BME280;63609;49.992;14.512;2024-03-17T07:24:26;98824.97;;;3.49;58.66
75039;BME280;63609;49.992;14.512;2024-03-17T07:26:53;98830.78;;;3.24;59.26
75039;BME280;63609;49.992;14.512;2024-03-17T07:29:20;98830.56;;;3.59;57.81
75039;BME280;63609;49.992;14.512;2024-03-17T07:31:46;98821.84;;;3.73;57.67
75039;BME280;63609;49.992;14.512;2024-03-17T07:34:12;98827.09;;;3.88;57.90
75039;BME280;63609;49.992;14.512;2024-03-17T07:36:38;98830.56;;;3.59;57.69
75039;BME280;63609;49.992;14.512;2024-03-17T07:39:05;98825.47;;;3.56;56.58
75039;BME280;63609;49.992;14.512;2024-03-17T07:41:32;98817.38;;;3.59;57.23
75039;BME280;63609;49.992;14.512;2024-03-17T07:43:58;98823.63;;;3.42;57.26
75039;BME280;63609;49.992;14.512;2024-03-17T07:46:24;98824.03;;;3.80;57.05
75039;BME280;63609;49.992;14.512;2024-03-17T07:48:50;98825.72;;;3.67;57.24
75039;BME280;63609;49.992;14.512;2024-03-17T07:51:17;98814.34;;;4.39;56.68
75039;BME280;63609;49.992;14.512;2024-03-17T07:53:44;98818.81;;;3.95;55.92
75039;BME280;63609;49.992;14.512;2024-03-17T07:56:12;98820.94;;;4.18;56.46
75039;BME280;63609;49.992;14.512;2024-03-17T07:58:40;98820.94;;;4.18;55.43
75039;BME280;63609;49.992;14.512;2024-03-17T08:01:09;98820.63;;;3.78;56.56
75039;BME280;63609;49.992;14.512;2024-03-17T08:03:40;98817.03;;;3.95;56.67
75039;BME280;63609;49.992;14.512;2024-03-17T08:06:07;98816.59;;;4.03;56.00
75039;BME280;63609;49.992;14.512;2024-03-17T08:08:35;98818.31;;;4.32;55.60
75039;BME280;63609;49.992;14.512;2024-03-17T08:11:01;98823.13;;;4.68;54.46
75039;BME280;63609;49.992;14.512;2024-03-17T08:13:31;98817.16;;;4.79;54.98
75039;BME280;63609;49.992;14.512;2024-03-17T08:16:02;98810.00;;;5.08;55.02
75039;BME280;63609;49.992;14.512;2024-03-17T08:18:29;98815.75;;;5.14;53.74
75039;BME280;63609;49.992;14.512;2024-03-17T08:20:55;98820.56;;;5.49;53.36
75039;BME280;63609;49.992;14.512;2024-03-17T08:23:22;98806.00;;;5.29;54.05
75039;BME280;63609;49.992;14.512;2024-03-17T08:25:58;98815.25;;;5.49;53.39
75039;BME280;63609;49.992;14.512;2024-03-17T08:28:26;98814.63;;;5.72;52.27
75039;BME280;63609;49.992;14.512;2024-03-17T08:33:19;98802.63;;;5.40;52.60
75039;BME280;63609;49.992;14.512;2024-03-17T08:36:06;98805.66;;;6.13;51.25
75039;BME280;63609;49.992;14.512;2024-03-17T08:38:36;98808.97;;;6.29;50.94
75039;BME280;63609;49.992;14.512;2024-03-17T08:41:07;98803.13;;;6.37;50.67
75039;BME280;63609;49.992;14.512;2024-03-17T08:43:35;98801.19;;;6.52;50.72
75039;BME280;63609;49.992;14.512;2024-03-17T08:46:09;98801.63;;;6.46;49.39
75039;BME280;63609;49.992;14.512;2024-03-17T08:48:36;98802.97;;;6.89;50.13
75039;BME280;63609;49.992;14.512;2024-03-17T08:51:04;98804.13;;;7.70;49.16
75039;BME280;63609;49.992;14.512;2024-03-17T08:53:31;98803.22;;;8.28;45.44
75039;BME280;63609;49.992;14.512;2024-03-17T08:55:57;98803.25;;;7.34;45.19
75039;BME280;63609;49.992;14.512;2024-03-17T08:58:25;98793.53;;;7.09;45.84
75039;BME280;63609;49.992;14.512;2024-03-17T09:00:51;98792.34;;;6.89;46.91
75039;BME280;63609;49.992;14.512;2024-03-17T09:03:18;98790.59;;;7.38;46.23
75039;BME280;63609;49.992;14.512;2024-03-17T09:05:46;98792.78;;;7.44;47.45
75039;BME280;63609;49.992;14.512;2024-03-17T09:08:23;98784.47;;;7.83;46.77
75039;BME280;63609;49.992;14.512;2024-03-17T09:10:50;98784.78;;;7.56;45.13
75039;BME280;63609;49.992;14.512;2024-03-17T09:13:19;98765.03;;;8.51;45.10
75039;BME280;63609;49.992;14.512;2024-03-17T09:15:56;98772.38;;;8.48;41.76
75039;BME280;63609;49.992;14.512;2024-03-17T09:18:23;98763.44;;;7.69;45.12
75039;BME280;63609;49.992;14.512;2024-03-17T09:20:57;98763.25;;;7.94;44.31
75039;BME280;63609;49.992;14.512;2024-03-17T09:23:23;98768.84;;;7.68;46.33
75039;BME280;63609;49.992;14.512;2024-03-17T09:26:19;98766.41;;;6.44;48.38
75039;BME280;63609;49.992;14.512;2024-03-17T09:28:46;98768.06;;;6.70;46.45
75039;BME280;63609;49.992;14.512;2024-03-17T09:31:12;98761.59;;;7.58;45.21
75039;BME280;63609;49.992;14.512;2024-03-17T09:33:38;98764.91;;;7.25;45.65
75039;BME280;63609;49.992;14.512;2024-03-17T09:36:08;98760.75;;;7.34;44.72
75039;BME280;63609;49.992;14.512;2024-03-17T09:38:38;98754.72;;;7.19;46.64
75039;BME280;63609;49.992;14.512;2024-03-17T09:41:07;98749.09;;;7.24;45.15
75039;BME280;63609;49.992;14.512;2024-03-17T09:43:43;98758.44;;;7.29;44.93
75039;BME280;63609;49.992;14.512;2024-03-17T09:46:10;98750.38;;;7.31;44.64
75039;BME280;63609;49.992;14.512;2024-03-17T09:48:36;98750.97;;;7.70;43.33
75039;BME280;63609;49.992;14.512;2024-03-17T09:51:03;98757.19;;;7.22;44.76
75039;BME280;63609;49.992;14.512;2024-03-17T09:53:30;98756.28;;;7.34;44.72
75039;BME280;63609;49.992;14.512;2024-03-17T09:56:06;98755.47;;;7.21;46.78
75039;BME280;63609;49.992;14.512;2024-03-17T09:58:34;98750.94;;;7.11;45.66
75039;BME280;63609;49.992;14.512;2024-03-17T10:01:01;98736.13;;;7.67;43.50
75039;BME280;63609;49.992;14.512;2024-03-17T10:03:53;98748.28;;;7.11;43.83
75039;BME280;63609;49.992;14.512;2024-03-17T10:06:25;98746.50;;;6.75;44.56
75039;BME280;63609;49.992;14.512;2024-03-17T10:08:55;98741.84;;;7.02;42.68
75039;BME280;63609;49.992;14.512;2024-03-17T10:11:22;98740.69;;;6.69;41.82
75039;BME280;63609;49.992;14.512;2024-03-17T10:14:18;98731.03;;;7.64;39.46
75039;BME280;63609;49.992;14.512;2024-03-17T10:16:44;98730.53;;;6.63;41.86
75039;BME280;63609;49.992;14.512;2024-03-17T10:19:16;98744.75;;;6.99;41.17
75039;BME280;63609;49.992;14.512;2024-03-17T10:21:44;98738.13;;;7.87;41.25
75039;BME280;63609;49.992;14.512;2024-03-17T10:26:54;98732.66;;;7.43;39.89
75039;BME280;63609;49.992;14.512;2024-03-17T10:32:02;98741.91;;;6.89;41.03
75039;BME280;63609;49.992;14.512;2024-03-17T10:34:30;98735.00;;;7.11;40.57
75039;BME280;63609;49.992;14.512;2024-03-17T10:37:19;98745.56;;;6.76;42.03
75039;BME280;63609;49.992;14.512;2024-03-17T10:39:53;98738.72;;;6.84;40.41
75039;BME280;63609;49.992;14.512;2024-03-17T10:42:27;98730.19;;;7.28;41.56
75039;BME280;63609;49.992;14.512;2024-03-17T10:45:06;98737.69;;;7.34;40.74
75039;BME280;63609;49.992;14.512;2024-03-17T10:47:34;98724.16;;;7.61;40.59
75039;BME280;63609;49.992;14.512;2024-03-17T10:50:00;98723.94;;;7.76;40.74
75039;BME280;63609;49.992;14.512;2024-03-17T10:52:33;98726.94;;;7.60;39.69
75039;BME280;63609;49.992;14.512;2024-03-17T10:55:02;98725.22;;;7.59;40.37
75039;BME280;63609;49.992;14.512;2024-03-17T10:57:45;98734.44;;;7.31;42.78
75039;BME280;63609;49.992;14.512;2024-03-17T11:00:24;98725.38;;;7.69;40.70
75039;BME280;63609;49.992;14.512;2024-03-17T11:02:55;98726.31;;;8.25;39.67
75039;BME280;63609;49.992;14.512;2024-03-17T11:05:28;98722.06;;;8.11;39.08
75039;BME280;63609;49.992;14.512;2024-03-17T11:08:01;98720.38;;;8.10;39.13
75039;BME280;63609;49.992;14.512;2024-03-17T11:10:30;98722.31;;;9.18;36.88
75039;BME280;63609;49.992;14.512;2024-03-17T11:13:00;98724.84;;;7.99;39.53
75039;BME280;63609;49.992;14.512;2024-03-17T11:20:37;98711.78;;;7.95;39.99
75039;BME280;63609;49.992;14.512;2024-03-17T11:23:05;98715.13;;;7.75;40.32
75039;BME280;63609;49.992;14.512;2024-03-17T11:28:03;98711.47;;;7.65;39.45
75039;BME280;63609;49.992;14.512;2024-03-17T11:38:59;98696.94;;;8.26;38.45
75039;BME280;63609;49.992;14.512;2024-03-17T11:44:26;98697.41;;;7.98;38.48
75039;BME280;63609;49.992;14.512;2024-03-17T11:49:40;98685.31;;;8.16;39.10
75039;BME280;63609;49.992;14.512;2024-03-17T11:52:14;98679.00;;;8.40;38.26
75039;BME280;63609;49.992;14.512;2024-03-17T11:54:42;98684.75;;;8.89;38.92
75039;BME280;63609;49.992;14.512;2024-03-17T11:57:12;98671.84;;;9.17;37.37
75039;BME280;63609;49.992;14.512;2024-03-17T11:59:39;98671.72;;;8.86;38.23
75039;BME280;63609;49.992;14.512;2024-03-17T12:04:48;98665.66;;;9.37;36.83
75039;BME280;63609;49.992;14.512;2024-03-17T12:07:16;98664.19;;;9.24;35.56
75039;BME280;63609;49.992;14.512;2024-03-17T12:09:43;98663.13;;;9.77;35.18
75039;BME280;63609;49.992;14.512;2024-03-17T12:12:18;98663.06;;;9.26;35.12
75039;BME280;63609;49.992;14.512;2024-03-17T12:14:46;98657.47;;;9.29;35.63
75039;BME280;63609;49.992;14.512;2024-03-17T12:17:13;98654.56;;;9.32;35.90
75039;BME280;63609;49.992;14.512;2024-03-17T12:19:44;98650.81;;;9.03;35.95
75039;BME280;63609;49.992;14.512;2024-03-17T12:22:16;98644.19;;;9.80;34.72
75039;BME280;63609;49.992;14.512;2024-03-17T12:24:44;98645.34;;;10.08;35.12
75039;BME280;63609;49.992;14.512;2024-03-17T12:27:20;98648.69;;;10.01;35.19
75039;BME280;63609;49.992;14.512;2024-03-17T12:29:48;98647.25;;;9.76;35.61
75039;BME280;63609;49.992;14.512;2024-03-17T12:32:16;98643.25;;;9.61;35.78
75039;BME280;63609;49.992;14.512;2024-03-17T12:34:44;98638.63;;;9.83;34.88
75039;BME280;63609;49.992;14.512;2024-03-17T12:37:18;98639.34;;;9.65;34.44
75039;BME280;63609;49.992;14.512;2024-03-17T12:39:44;98642.50;;;9.49;35.41
75039;BME280;63609;49.992;14.512;2024-03-17T12:42:12;98625.44;;;9.19;35.63
75039;BME280;63609;49.992;14.512;2024-03-17T12:44:52;98633.16;;;9.02;35.56
75039;BME280;63609;49.992;14.512;2024-03-17T12:47:21;98616.00;;;8.51;37.90
75039;BME280;63609;49.992;14.512;2024-03-17T12:49:49;98626.66;;;8.18;37.83
75039;BME280;63609;49.992;14.512;2024-03-17T12:52:20;98626.19;;;8.89;38.36
75039;BME280;63609;49.992;14.512;2024-03-17T12:55:01;98631.88;;;9.59;37.34
75039;BME280;63609;49.992;14.512;2024-03-17T12:57:49;98630.00;;;9.49;35.46
75039;BME280;63609;49.992;14.512;2024-03-17T13:00:35;98621.72;;;9.94;36.34
75039;BME280;63609;49.992;14.512;2024-03-17T13:03:03;98619.56;;;9.67;34.67
75039;BME280;63609;49.992;14.512;2024-03-17T13:05:30;98609.78;;;9.98;35.12
75039;BME280;63609;49.992;14.512;2024-03-17T13:07:58;98617.97;;;10.56;32.54
75039;BME280;63609;49.992;14.512;2024-03-17T13:10:25;98613.56;;;10.36;33.07
75039;BME280;63609;49.992;14.512;2024-03-17T13:13:02;98608.63;;;10.31;33.91
75039;BME280;63609;49.992;14.512;2024-03-17T13:15:29;98598.31;;;10.07;33.08
75039;BME280;63609;49.992;14.512;2024-03-17T13:17:58;98597.19;;;10.60;32.35
75039;BME280;63609;49.992;14.512;2024-03-17T13:20:25;98597.25;;;9.89;34.37
75039;BME280;63609;49.992;14.512;2024-03-17T13:22:53;98597.13;;;10.31;33.26
75039;BME280;63609;49.992;14.512;2024-03-17T13:25:24;98584.72;;;10.80;33.23
75039;BME280;63609;49.992;14.512;2024-03-17T13:27:52;98584.69;;;10.70;33.47
75039;BME280;63609;49.992;14.512;2024-03-17T13:30:21;98586.84;;;10.26;33.18
75039;BME280;63609;49.992;14.512;2024-03-17T13:32:52;98588.69;;;10.35;33.82
75039;BME280;63609;49.992;14.512;2024-03-17T13:35:25;98582.84;;;11.38;32.36
75039;BME280;63609;49.992;14.512;2024-03-17T13:37:53;98582.06;;;11.65;30.71
75039;BME280;63609;49.992;14.512;2024-03-17T13:40:22;98576.22;;;11.52;32.14
75039;BME280;63609;49.992;14.512;2024-03-17T13:42:50;98574.25;;;11.91;31.12
75039;BME280;63609;49.992;14.512;2024-03-17T13:45:17;98570.47;;;10.60;33.90
75039;BME280;63609;49.992;14.512;2024-03-17T13:47:53;98588.09;;;9.82;34.74